sensor_id;sensor_type;location;lat;lon;timestamp;pressure;altitude;pressure_sealevel;temperature;humidity
30724;BME280;17473;52.286;20.930;2023-05-03T00:02:23;100963.22;;;11.92;62.99
30724;BME280;17473;52.286;20.930;2023-05-03T00:04:53;100973.47;;;11.83;63.86
30724;BME280;17473;52.286;20.930;2023-05-03T00:07:21;100970.28;;;11.93;64.00
30724;BME280;17473;52.286;20.930;2023-05-03T00:09:48;100969.41;;;11.70;64.78
30724;BME280;17473;52.286;20.930;2023-05-03T00:12:16;100967.06;;;11.78;62.91
30724;BME280;17473;52.286;20.930;2023-05-03T00:14:44;100965.53;;;11.60;62.36
30724;BME280;17473;52.286;20.930;2023-05-03T00:17:12;100973.50;;;11.62;62.91
30724;BME280;17473;52.286;20.930;2023-05-03T00:19:39;100970.63;;;11.55;63.42
30724;BME280;17473;52.286;20.930;2023-05-03T00:22:06;100972.50;;;11.58;62.48
30724;BME280;17473;52.286;20.930;2023-05-03T00:24:34;100972.00;;;11.68;61.48
30724;BME280;17473;52.286;20.930;2023-05-03T00:27:03;100975.63;;;11.70;60.72
30724;BME280;17473;52.286;20.930;2023-05-03T00:29:31;100968.31;;;11.63;60.48
30724;BME280;17473;52.286;20.930;2023-05-03T00:31:58;100962.03;;;11.61;60.26
30724;BME280;17473;52.286;20.930;2023-05-03T00:34:26;100958.44;;;11.59;60.58
30724;BME280;17473;52.286;20.930;2023-05-03T00:36:53;100962.16;;;11.64;60.41
30724;BME280;17473;52.286;20.930;2023-05-03T00:39:20;100953.53;;;11.70;60.56
30724;BME280;17473;52.286;20.930;2023-05-03T00:41:47;100952.66;;;11.69;61.02
30724;BME280;17473;52.286;20.930;2023-05-03T00:44:14;100953.22;;;11.61;61.31
30724;BME280;17473;52.286;20.930;2023-05-03T00:46:41;100965.88;;;11.69;61.23
30724;BME280;17473;52.286;20.930;2023-05-03T00:49:09;100963.44;;;11.51;60.91
30724;BME280;17473;52.286;20.930;2023-05-03T00:51:36;100966.19;;;11.54;60.42
30724;BME280;17473;52.286;20.930;2023-05-03T00:54:03;100972.50;;;11.58;60.50
30724;BME280;17473;52.286;20.930;2023-05-03T00:56:32;100977.91;;;11.38;60.66
30724;BME280;17473;52.286;20.930;2023-05-03T00:59:17;100983.63;;;11.49;60.37
30724;BME280;17473;52.286;20.930;2023-05-03T01:01:50;100987.28;;;11.53;60.45
30724;BME280;17473;52.286;20.930;2023-05-03T01:04:18;100993.41;;;11.52;60.44
30724;BME280;17473;52.286;20.930;2023-05-03T01:07:07;100991.56;;;11.49;60.67
30724;BME280;17473;52.286;20.930;2023-05-03T01:15:58;101002.09;;;11.26;62.49
30724;BME280;17473;52.286;20.930;2023-05-03T01:18:30;101000.25;;;11.24;62.37
30724;BME280;17473;52.286;20.930;2023-05-03T01:21:01;101004.03;;;11.31;61.83
30724;BME280;17473;52.286;20.930;2023-05-03T01:24:05;101000.69;;;11.14;61.70
30724;BME280;17473;52.286;20.930;2023-05-03T01:26:33;101003.47;;;11.17;60.97
30724;BME280;17473;52.286;20.930;2023-05-03T01:29:00;101005.47;;;11.22;60.47
30724;BME280;17473;52.286;20.930;2023-05-03T01:31:35;101005.59;;;11.04;60.80
30724;BME280;17473;52.286;20.930;2023-05-03T01:34:46;101007.22;;;10.79;61.53
30724;BME280;17473;52.286;20.930;2023-05-03T01:37:17;101017.03;;;10.62;62.04
30724;BME280;17473;52.286;20.930;2023-05-03T01:40:00;101019.25;;;10.73;61.66
30724;BME280;17473;52.286;20.930;2023-05-03T01:42:29;101021.47;;;10.63;62.67
30724;BME280;17473;52.286;20.930;2023-05-03T01:44:58;101035.94;;;10.72;63.04
30724;BME280;17473;52.286;20.930;2023-05-03T01:47:26;101028.66;;;10.66;63.56
30724;BME280;17473;52.286;20.930;2023-05-03T01:49:53;101019.25;;;10.73;63.82
30724;BME280;17473;52.286;20.930;2023-05-03T01:52:22;101030.63;;;10.72;64.37
30724;BME280;17473;52.286;20.930;2023-05-03T01:54:49;101026.44;;;10.75;64.31
30724;BME280;17473;52.286;20.930;2023-05-03T01:57:17;101027.25;;;10.74;64.20
30724;BME280;17473;52.286;20.930;2023-05-03T01:59:44;101021.03;;;10.53;65.37
30724;BME280;17473;52.286;20.930;2023-05-03T02:02:11;101023.03;;;10.58;65.01
30724;BME280;17473;52.286;20.930;2023-05-03T02:04:38;101020.44;;;10.60;65.21
30724;BME280;17473;52.286;20.930;2023-05-03T02:07:05;101022.16;;;10.58;65.37
30724;BME280;17473;52.286;20.930;2023-05-03T02:09:32;101021.56;;;10.65;65.10
30724;BME280;17473;52.286;20.930;2023-05-03T02:12:00;101013.56;;;10.63;65.63
30724;BME280;17473;52.286;20.930;2023-05-03T02:14:27;101020.06;;;10.72;65.29
30724;BME280;17473;52.286;20.930;2023-05-03T02:16:54;101022.59;;;10.69;65.19
30724;BME280;17473;52.286;20.930;2023-05-03T02:19:21;101032.13;;;10.65;65.48
30724;BME280;17473;52.286;20.930;2023-05-03T02:21:48;101029.13;;;10.77;65.26
30724;BME280;17473;52.286;20.930;2023-05-03T02:24:16;101024.97;;;10.62;66.21
30724;BME280;17473;52.286;20.930;2023-05-03T02:26:43;101034.28;;;10.54;66.56
30724;BME280;17473;52.286;20.930;2023-05-03T02:29:10;101048.19;;;10.50;67.14
30724;BME280;17473;52.286;20.930;2023-05-03T02:31:37;101049.66;;;10.63;66.97
30724;BME280;17473;52.286;20.930;2023-05-03T02:34:04;101050.34;;;10.59;66.84
30724;BME280;17473;52.286;20.930;2023-05-03T02:36:31;101041.38;;;10.55;67.31
30724;BME280;17473;52.286;20.930;2023-05-03T02:38:59;101042.34;;;10.57;67.13
30724;BME280;17473;52.286;20.930;2023-05-03T02:41:26;101043.53;;;10.44;66.93
30724;BME280;17473;52.286;20.930;2023-05-03T02:43:53;101047.06;;;10.45;66.55
30724;BME280;17473;52.286;20.930;2023-05-03T02:46:20;101051.19;;;10.38;66.05
30724;BME280;17473;52.286;20.930;2023-05-03T02:48:47;101044.44;;;10.25;65.87
30724;BME280;17473;52.286;20.930;2023-05-03T02:51:14;101041.59;;;10.40;65.63
30724;BME280;17473;52.286;20.930;2023-05-03T02:53:41;101040.50;;;10.55;64.88
30724;BME280;17473;52.286;20.930;2023-05-03T02:56:08;101039.63;;;10.36;65.38
30724;BME280;17473;52.286;20.930;2023-05-03T02:58:35;101035.75;;;10.28;66.13
30724;BME280;17473;52.286;20.930;2023-05-03T03:01:03;101037.88;;;10.37;65.96
30724;BME280;17473;52.286;20.930;2023-05-03T03:03:30;101039.28;;;10.28;66.50
30724;BME280;17473;52.286;20.930;2023-05-03T03:05:57;101048.44;;;10.37;66.70
30724;BME280;17473;52.286;20.930;2023-05-03T03:08:25;101051.53;;;10.26;67.13
30724;BME280;17473;52.286;20.930;2023-05-03T03:10:52;101047.81;;;10.23;67.48
30724;BME280;17473;52.286;20.930;2023-05-03T03:13:19;101043.25;;;10.18;67.42
30724;BME280;17473;52.286;20.930;2023-05-03T03:15:46;101051.84;;;10.34;67.26
30724;BME280;17473;52.286;20.930;2023-05-03T03:18:13;101039.72;;;10.38;65.95
30724;BME280;17473;52.286;20.930;2023-05-03T03:20:42;101052.41;;;10.27;65.81
30724;BME280;17473;52.286;20.930;2023-05-03T03:23:09;101059.69;;;10.13;65.50
30724;BME280;17473;52.286;20.930;2023-05-03T03:25:37;101060.47;;;10.10;66.17
30724;BME280;17473;52.286;20.930;2023-05-03T03:28:04;101057.88;;;10.12;66.17
30724;BME280;17473;52.286;20.930;2023-05-03T03:30:31;101066.16;;;10.20;65.37
30724;BME280;17473;52.286;20.930;2023-05-03T03:32:58;101072.97;;;10.34;64.70
30724;BME280;17473;52.286;20.930;2023-05-03T03:35:26;101062.97;;;10.27;65.36
30724;BME280;17473;52.286;20.930;2023-05-03T03:37:53;101067.25;;;10.25;65.05
30724;BME280;17473;52.286;20.930;2023-05-03T03:40:20;101070.19;;;10.11;65.49
30724;BME280;17473;52.286;20.930;2023-05-03T03:42:47;101073.09;;;10.17;65.30
30724;BME280;17473;52.286;20.930;2023-05-03T03:45:14;101082.88;;;10.38;64.96
30724;BME280;17473;52.286;20.930;2023-05-03T03:47:41;101085.75;;;10.25;64.60
30724;BME280;17473;52.286;20.930;2023-05-03T03:50:09;101069.78;;;10.22;64.01
30724;BME280;17473;52.286;20.930;2023-05-03T03:52:36;101082.63;;;10.33;62.05
30724;BME280;17473;52.286;20.930;2023-05-03T03:55:04;101091.84;;;10.24;62.54
30724;BME280;17473;52.286;20.930;2023-05-03T03:57:31;101096.09;;;10.38;62.52
30724;BME280;17473;52.286;20.930;2023-05-03T03:59:58;101090.50;;;10.52;62.08
30724;BME280;17473;52.286;20.930;2023-05-03T04:02:26;101091.53;;;10.55;61.74
30724;BME280;17473;52.286;20.930;2023-05-03T04:04:53;101104.06;;;10.79;61.04
30724;BME280;17473;52.286;20.930;2023-05-03T04:07:20;101101.06;;;10.91;60.78
30724;BME280;17473;52.286;20.930;2023-05-03T04:09:47;101113.16;;;10.86;60.66
30724;BME280;17473;52.286;20.930;2023-05-03T04:12:15;101117.56;;;11.06;59.95
30724;BME280;17473;52.286;20.930;2023-05-03T04:14:42;101124.44;;;11.22;59.38
30724;BME280;17473;52.286;20.930;2023-05-03T04:17:09;101114.34;;;11.35;58.31
30724;BME280;17473;52.286;20.930;2023-05-03T04:19:36;101115.03;;;11.29;58.30
30724;BME280;17473;52.286;20.930;2023-05-03T04:22:04;101113.22;;;11.49;57.50
30724;BME280;17473;52.286;20.930;2023-05-03T04:24:31;101109.88;;;11.97;56.07
30724;BME280;17473;52.286;20.930;2023-05-03T04:26:58;101109.78;;;13.40;52.12
30724;BME280;17473;52.286;20.930;2023-05-03T04:29:30;101114.59;;;15.31;47.16
30724;BME280;17473;52.286;20.930;2023-05-03T04:31:57;101120.16;;;15.41;45.83
30724;BME280;17473;52.286;20.930;2023-05-03T04:34:24;101117.00;;;16.32;43.40
30724;BME280;17473;52.286;20.930;2023-05-03T04:36:51;101111.19;;;18.67;39.52
30724;BME280;17473;52.286;20.930;2023-05-03T04:39:19;101118.50;;;18.82;38.08
30724;BME280;17473;52.286;20.930;2023-05-03T04:41:47;101116.13;;;20.13;34.98
30724;BME280;17473;52.286;20.930;2023-05-03T04:44:15;101127.63;;;19.93;35.48
30724;BME280;17473;52.286;20.930;2023-05-03T04:46:42;101125.53;;;21.50;32.90
30724;BME280;17473;52.286;20.930;2023-05-03T04:49:09;101132.31;;;19.17;36.32
30724;BME280;17473;52.286;20.930;2023-05-03T04:51:36;101138.03;;;18.73;36.90
30724;BME280;17473;52.286;20.930;2023-05-03T04:54:03;101133.81;;;17.67;38.83
30724;BME280;17473;52.286;20.930;2023-05-03T04:56:30;101138.19;;;16.67;40.43
30724;BME280;17473;52.286;20.930;2023-05-03T04:59:01;101134.66;;;16.27;41.59
30724;BME280;17473;52.286;20.930;2023-05-03T05:01:28;101147.72;;;15.79;43.00
30724;BME280;17473;52.286;20.930;2023-05-03T05:03:55;101142.63;;;16.67;41.79
30724;BME280;17473;52.286;20.930;2023-05-03T05:06:23;101135.34;;;22.20;32.18
30724;BME280;17473;52.286;20.930;2023-05-03T05:08:50;101138.09;;;25.29;28.05
30724;BME280;17473;52.286;20.930;2023-05-03T05:11:17;101141.34;;;26.98;25.14
30724;BME280;17473;52.286;20.930;2023-05-03T05:13:44;101134.50;;;28.60;23.47
30724;BME280;17473;52.286;20.930;2023-05-03T05:16:11;101127.31;;;29.99;21.80
30724;BME280;17473;52.286;20.930;2023-05-03T05:18:38;101142.03;;;29.66;21.07
30724;BME280;17473;52.286;20.930;2023-05-03T05:21:06;101141.28;;;29.88;20.67
30724;BME280;17473;52.286;20.930;2023-05-03T05:23:33;101145.66;;;31.60;19.15
30724;BME280;17473;52.286;20.930;2023-05-03T05:26:00;101149.97;;;30.98;19.19
30724;BME280;17473;52.286;20.930;2023-05-03T05:28:27;101152.88;;;30.93;18.89
30724;BME280;17473;52.286;20.930;2023-05-03T05:30:54;101142.06;;;30.68;18.84
30724;BME280;17473;52.286;20.930;2023-05-03T05:33:22;101155.81;;;31.34;18.30
30724;BME280;17473;52.286;20.930;2023-05-03T05:35:50;101148.47;;;33.21;16.85
30724;BME280;17473;52.286;20.930;2023-05-03T05:38:17;101147.56;;;31.80;17.34
30724;BME280;17473;52.286;20.930;2023-05-03T05:40:44;101144.31;;;32.34;16.94
30724;BME280;17473;52.286;20.930;2023-05-03T05:43:11;101148.16;;;32.49;16.66
30724;BME280;17473;52.286;20.930;2023-05-03T05:45:38;101154.53;;;32.89;16.39
30724;BME280;17473;52.286;20.930;2023-05-03T05:48:05;101157.06;;;32.13;16.80
30724;BME280;17473;52.286;20.930;2023-05-03T05:50:34;101157.03;;;33.13;16.05
30724;BME280;17473;52.286;20.930;2023-05-03T05:53:02;101158.88;;;32.54;15.86
30724;BME280;17473;52.286;20.930;2023-05-03T05:55:29;101166.91;;;33.16;15.44
30724;BME280;17473;52.286;20.930;2023-05-03T05:57:56;101166.34;;;33.65;15.22
30724;BME280;17473;52.286;20.930;2023-05-03T06:00:23;101170.91;;;33.47;14.39
30724;BME280;17473;52.286;20.930;2023-05-03T06:02:51;101176.31;;;33.48;14.50
30724;BME280;17473;52.286;20.930;2023-05-03T06:05:19;101171.34;;;33.18;14.45
30724;BME280;17473;52.286;20.930;2023-05-03T06:07:48;101172.84;;;35.01;13.60
30724;BME280;17473;52.286;20.930;2023-05-03T06:10:15;101172.50;;;38.40;11.90
30724;BME280;17473;52.286;20.930;2023-05-03T06:12:42;101174.75;;;37.40;12.29
30724;BME280;17473;52.286;20.930;2023-05-03T06:15:09;101173.56;;;37.84;11.67
30724;BME280;17473;52.286;20.930;2023-05-03T06:17:37;101178.56;;;37.37;12.37
30724;BME280;17473;52.286;20.930;2023-05-03T06:20:05;101179.50;;;37.38;11.78
30724;BME280;17473;52.286;20.930;2023-05-03T06:22:32;101186.81;;;37.10;11.36
30724;BME280;17473;52.286;20.930;2023-05-03T06:25:00;101187.22;;;36.75;11.19
30724;BME280;17473;52.286;20.930;2023-05-03T06:27:27;101186.13;;;36.77;11.70
30724;BME280;17473;52.286;20.930;2023-05-03T06:29:54;101195.06;;;36.95;11.58
30724;BME280;17473;52.286;20.930;2023-05-03T06:32:21;101190.56;;;36.94;11.27
30724;BME280;17473;52.286;20.930;2023-05-03T06:34:49;101188.97;;;36.02;11.75
30724;BME280;17473;52.286;20.930;2023-05-03T06:37:16;101192.03;;;36.42;11.32
30724;BME280;17473;52.286;20.930;2023-05-03T06:39:43;101195.59;;;35.35;11.13
30724;BME280;17473;52.286;20.930;2023-05-03T06:42:10;101189.19;;;36.73;11.11
30724;BME280;17473;52.286;20.930;2023-05-03T06:44:37;101182.69;;;36.45;11.34
30724;BME280;17473;52.286;20.930;2023-05-03T06:47:04;101198.56;;;35.79;11.37
30724;BME280;17473;52.286;20.930;2023-05-03T06:49:32;101192.41;;;35.27;11.96
30724;BME280;17473;52.286;20.930;2023-05-03T06:51:59;101199.88;;;35.41;11.85
30724;BME280;17473;52.286;20.930;2023-05-03T06:54:26;101200.34;;;36.41;11.52
30724;BME280;17473;52.286;20.930;2023-05-03T06:56:53;101205.81;;;35.80;11.94
30724;BME280;17473;52.286;20.930;2023-05-03T06:59:20;101199.13;;;34.72;12.30
30724;BME280;17473;52.286;20.930;2023-05-03T07:01:47;101211.22;;;35.97;12.07
30724;BME280;17473;52.286;20.930;2023-05-03T07:04:16;101205.78;;;37.56;11.29
30724;BME280;17473;52.286;20.930;2023-05-03T07:06:43;101199.81;;;34.59;12.86
30724;BME280;17473;52.286;20.930;2023-05-03T07:09:22;101209.94;;;31.45;14.57
30724;BME280;17473;52.286;20.930;2023-05-03T07:12:08;101207.53;;;31.14;15.04
30724;BME280;17473;52.286;20.930;2023-05-03T07:14:35;101193.03;;;32.64;13.93
30724;BME280;17473;52.286;20.930;2023-05-03T07:17:02;101207.63;;;33.60;13.24
30724;BME280;17473;52.286;20.930;2023-05-03T07:19:29;101209.00;;;31.68;14.38
30724;BME280;17473;52.286;20.930;2023-05-03T07:21:56;101207.78;;;31.76;14.53
30724;BME280;17473;52.286;20.930;2023-05-03T07:24:23;101201.03;;;32.69;13.93
30724;BME280;17473;52.286;20.930;2023-05-03T07:26:52;101194.06;;;33.20;13.24
30724;BME280;17473;52.286;20.930;2023-05-03T07:29:20;101197.31;;;33.48;13.54
30724;BME280;17473;52.286;20.930;2023-05-03T07:31:47;101189.59;;;32.59;14.12
30724;BME280;17473;52.286;20.930;2023-05-03T07:34:17;101201.31;;;32.00;13.84
30724;BME280;17473;52.286;20.930;2023-05-03T07:36:44;101207.81;;;32.39;14.15
30724;BME280;17473;52.286;20.930;2023-05-03T07:39:11;101205.03;;;31.53;14.56
30724;BME280;17473;52.286;20.930;2023-05-03T07:41:38;101208.63;;;29.55;16.08
30724;BME280;17473;52.286;20.930;2023-05-03T07:44:05;101212.69;;;26.97;18.44
30724;BME280;17473;52.286;20.930;2023-05-03T07:46:33;101219.13;;;25.32;19.97
30724;BME280;17473;52.286;20.930;2023-05-03T07:49:03;101209.56;;;26.72;18.78
30724;BME280;17473;52.286;20.930;2023-05-03T07:51:37;101213.81;;;26.38;19.09
30724;BME280;17473;52.286;20.930;2023-05-03T07:54:05;101220.47;;;25.66;20.25
30724;BME280;17473;52.286;20.930;2023-05-03T07:56:32;101214.38;;;25.51;20.03
30724;BME280;17473;52.286;20.930;2023-05-03T07:58:59;101203.16;;;25.15;20.45
30724;BME280;17473;52.286;20.930;2023-05-03T08:01:36;101205.00;;;25.11;21.20
30724;BME280;17473;52.286;20.930;2023-05-03T08:04:04;101217.88;;;26.16;20.64
30724;BME280;17473;52.286;20.930;2023-05-03T08:06:32;101215.69;;;26.83;20.34
30724;BME280;17473;52.286;20.930;2023-05-03T08:09:01;101212.59;;;27.02;19.66
30724;BME280;17473;52.286;20.930;2023-05-03T08:11:30;101213.22;;;27.56;18.91
30724;BME280;17473;52.286;20.930;2023-05-03T08:13:58;101217.41;;;25.87;20.50
30724;BME280;17473;52.286;20.930;2023-05-03T08:16:25;101207.38;;;25.94;20.58
30724;BME280;17473;52.286;20.930;2023-05-03T08:18:52;101210.53;;;26.69;20.29
30724;BME280;17473;52.286;20.930;2023-05-03T08:21:19;101212.66;;;27.40;19.74
30724;BME280;17473;52.286;20.930;2023-05-03T08:23:47;101217.06;;;27.83;19.10
30724;BME280;17473;52.286;20.930;2023-05-03T08:26:14;101207.97;;;28.55;18.86
30724;BME280;17473;52.286;20.930;2023-05-03T08:28:42;101214.53;;;28.13;19.27
30724;BME280;17473;52.286;20.930;2023-05-03T08:31:09;101216.00;;;26.19;20.85
30724;BME280;17473;52.286;20.930;2023-05-03T08:33:36;101220.41;;;25.06;21.74
30724;BME280;17473;52.286;20.930;2023-05-03T08:36:03;101215.53;;;24.60;22.28
30724;BME280;17473;52.286;20.930;2023-05-03T08:38:33;101216.63;;;24.42;22.17
30724;BME280;17473;52.286;20.930;2023-05-03T08:43:43;101213.03;;;25.82;21.51
30724;BME280;17473;52.286;20.930;2023-05-03T08:46:12;101219.69;;;26.14;21.43
30724;BME280;17473;52.286;20.930;2023-05-03T08:48:39;101214.50;;;25.43;21.59
30724;BME280;17473;52.286;20.930;2023-05-03T08:51:07;101218.91;;;26.08;21.42
30724;BME280;17473;52.286;20.930;2023-05-03T08:53:35;101224.75;;;25.15;21.88
30724;BME280;17473;52.286;20.930;2023-05-03T08:56:10;101224.59;;;24.56;22.41
30724;BME280;17473;52.286;20.930;2023-05-03T08:58:38;101224.75;;;25.15;21.91
30724;BME280;17473;52.286;20.930;2023-05-03T09:01:08;101225.50;;;25.89;21.43
30724;BME280;17473;52.286;20.930;2023-05-03T09:03:36;101225.69;;;25.76;21.18
30724;BME280;17473;52.286;20.930;2023-05-03T09:06:22;101219.00;;;25.43;21.57
30724;BME280;17473;52.286;20.930;2023-05-03T09:08:53;101224.22;;;24.90;21.22
30724;BME280;17473;52.286;20.930;2023-05-03T09:11:25;101221.16;;;23.17;22.29
30724;BME280;17473;52.286;20.930;2023-05-03T09:14:06;101234.78;;;22.67;23.25
30724;BME280;17473;52.286;20.930;2023-05-03T09:16:34;101236.47;;;23.02;23.14
30724;BME280;17473;52.286;20.930;2023-05-03T09:19:05;101232.31;;;23.98;22.55
30724;BME280;17473;52.286;20.930;2023-05-03T09:21:36;101237.81;;;23.82;22.24
30724;BME280;17473;52.286;20.930;2023-05-03T09:24:20;101226.69;;;24.26;22.06
30724;BME280;17473;52.286;20.930;2023-05-03T09:26:50;101234.31;;;23.71;22.06
30724;BME280;17473;52.286;20.930;2023-05-03T09:29:31;101230.13;;;23.16;22.27
30724;BME280;17473;52.286;20.930;2023-05-03T09:32:04;101243.84;;;24.17;21.55
30724;BME280;17473;52.286;20.930;2023-05-03T09:34:33;101234.25;;;23.79;21.68
30724;BME280;17473;52.286;20.930;2023-05-03T09:37:01;101229.09;;;23.46;21.54
30724;BME280;17473;52.286;20.930;2023-05-03T09:39:28;101230.34;;;22.50;22.54
30724;BME280;17473;52.286;20.930;2023-05-03T09:41:55;101236.22;;;23.50;21.63
30724;BME280;17473;52.286;20.930;2023-05-03T09:44:43;101236.44;;;23.08;22.33
30724;BME280;17473;52.286;20.930;2023-05-03T09:47:11;101237.97;;;23.59;22.34
30724;BME280;17473;52.286;20.930;2023-05-03T09:49:38;101226.88;;;24.05;21.75
30724;BME280;17473;52.286;20.930;2023-05-03T09:52:06;101232.06;;;25.07;21.54
30724;BME280;17473;52.286;20.930;2023-05-03T09:54:34;101228.72;;;25.56;20.69
30724;BME280;17473;52.286;20.930;2023-05-03T09:57:07;101224.81;;;25.76;20.23
30724;BME280;17473;52.286;20.930;2023-05-03T09:59:36;101226.41;;;25.28;20.99
30724;BME280;17473;52.286;20.930;2023-05-03T10:02:05;101227.66;;;25.67;20.75
30724;BME280;17473;52.286;20.930;2023-05-03T10:04:48;101230.13;;;24.40;21.56
30724;BME280;17473;52.286;20.930;2023-05-03T10:07:17;101236.59;;;22.71;22.88
30724;BME280;17473;52.286;20.930;2023-05-03T10:09:48;101239.97;;;23.15;22.68
30724;BME280;17473;52.286;20.930;2023-05-03T10:12:15;101240.19;;;22.70;23.03
30724;BME280;17473;52.286;20.930;2023-05-03T10:14:47;101239.91;;;23.38;22.47
30724;BME280;17473;52.286;20.930;2023-05-03T10:17:30;101237.75;;;23.88;22.19
30724;BME280;17473;52.286;20.930;2023-05-03T10:23:06;101241.47;;;23.72;21.85
30724;BME280;17473;52.286;20.930;2023-05-03T10:25:35;101239.94;;;23.32;22.40
30724;BME280;17473;52.286;20.930;2023-05-03T10:28:08;101234.66;;;23.04;23.08
30724;BME280;17473;52.286;20.930;2023-05-03T10:30:38;101238.31;;;22.85;23.14
30724;BME280;17473;52.286;20.930;2023-05-03T10:35:50;101237.56;;;22.42;23.68
30724;BME280;17473;52.286;20.930;2023-05-03T10:38:26;101233.03;;;22.58;23.52
30724;BME280;17473;52.286;20.930;2023-05-03T10:40:55;101242.31;;;23.80;22.29
30724;BME280;17473;52.286;20.930;2023-05-03T10:46:00;101228.03;;;23.69;23.02
30724;BME280;17473;52.286;20.930;2023-05-03T10:48:28;101226.28;;;23.58;22.15
30724;BME280;17473;52.286;20.930;2023-05-03T10:50:57;101226.66;;;22.78;22.83
30724;BME280;17473;52.286;20.930;2023-05-03T10:58:42;101223.13;;;21.50;24.21
30724;BME280;17473;52.286;20.930;2023-05-03T11:01:16;101235.50;;;20.94;24.55
30724;BME280;17473;52.286;20.930;2023-05-03T11:03:57;101231.03;;;20.91;25.20
30724;BME280;17473;52.286;20.930;2023-05-03T11:09:04;101236.34;;;20.84;24.96
30724;BME280;17473;52.286;20.930;2023-05-03T11:11:34;101245.94;;;20.46;24.99
30724;BME280;17473;52.286;20.930;2023-05-03T11:14:02;101247.81;;;20.64;25.12
30724;BME280;17473;52.286;20.930;2023-05-03T11:16:30;101246.09;;;20.72;25.26
30724;BME280;17473;52.286;20.930;2023-05-03T11:18:59;101246.19;;;20.86;25.30
30724;BME280;17473;52.286;20.930;2023-05-03T11:21:26;101254.28;;;20.95;24.44
30724;BME280;17473;52.286;20.930;2023-05-03T11:23:53;101244.38;;;20.79;24.66
30724;BME280;17473;52.286;20.930;2023-05-03T11:26:20;101240.91;;;21.03;23.54
30724;BME280;17473;52.286;20.930;2023-05-03T11:28:53;101242.69;;;21.01;24.13
30724;BME280;17473;52.286;20.930;2023-05-03T11:31:20;101240.78;;;20.74;25.34
30724;BME280;17473;52.286;20.930;2023-05-03T11:33:49;101242.66;;;20.92;26.06
30724;BME280;17473;52.286;20.930;2023-05-03T11:36:16;101239.00;;;20.80;24.30
30724;BME280;17473;52.286;20.930;2023-05-03T11:38:44;101246.25;;;20.94;24.40
30724;BME280;17473;52.286;20.930;2023-05-03T11:41:18;101242.66;;;20.97;23.59
30724;BME280;17473;52.286;20.930;2023-05-03T11:43:48;101238.16;;;20.85;23.28
30724;BME280;17473;52.286;20.930;2023-05-03T11:46:27;101230.06;;;20.82;24.16
30724;BME280;17473;52.286;20.930;2023-05-03T11:49:00;101241.41;;;20.36;25.08
30724;BME280;17473;52.286;20.930;2023-05-03T11:51:28;101243.50;;;20.86;25.15
30724;BME280;17473;52.286;20.930;2023-05-03T11:53:55;101230.63;;;20.25;26.25
30724;BME280;17473;52.286;20.930;2023-05-03T11:56:23;101234.19;;;20.27;26.04
30724;BME280;17473;52.286;20.930;2023-05-03T11:58:57;101243.09;;;20.21;25.41
30724;BME280;17473;52.286;20.930;2023-05-03T12:01:27;101249.81;;;19.77;25.61
30724;BME280;17473;52.286;20.930;2023-05-03T12:04:00;101249.75;;;19.66;26.70
30724;BME280;17473;52.286;20.930;2023-05-03T12:06:31;101252.31;;;19.60;27.03
30724;BME280;17473;52.286;20.930;2023-05-03T12:09:03;101247.34;;;19.94;26.25
30724;BME280;17473;52.286;20.930;2023-05-03T12:11:40;101251.00;;;20.02;25.34
30724;BME280;17473;52.286;20.930;2023-05-03T12:14:10;101241.31;;;20.22;25.80
30724;BME280;17473;52.286;20.930;2023-05-03T12:16:50;101243.59;;;19.80;25.41
30724;BME280;17473;52.286;20.930;2023-05-03T12:19:37;101237.69;;;19.27;25.51
30724;BME280;17473;52.286;20.930;2023-05-03T12:22:18;101242.84;;;19.10;26.77
30724;BME280;17473;52.286;20.930;2023-05-03T12:24:52;101237.38;;;18.99;26.96
30724;BME280;17473;52.286;20.930;2023-05-03T12:27:19;101236.47;;;18.99;27.41
30724;BME280;17473;52.286;20.930;2023-05-03T12:29:49;101239.09;;;18.94;26.80
30724;BME280;17473;52.286;20.930;2023-05-03T12:32:17;101236.50;;;19.00;26.63
30724;BME280;17473;52.286;20.930;2023-05-03T12:34:48;101230.38;;;19.09;26.81
30724;BME280;17473;52.286;20.930;2023-05-03T12:37:17;101232.25;;;19.18;26.56
30724;BME280;17473;52.286;20.930;2023-05-03T12:39:48;101224.06;;;19.05;26.50
30724;BME280;17473;52.286;20.930;2023-05-03T12:42:35;101227.38;;;18.86;27.70
30724;BME280;17473;52.286;20.930;2023-05-03T12:45:03;101225.94;;;18.48;28.04
30724;BME280;17473;52.286;20.930;2023-05-03T12:47:31;101225.41;;;18.74;27.46
30724;BME280;17473;52.286;20.930;2023-05-03T12:50:03;101223.53;;;19.36;26.29
30724;BME280;17473;52.286;20.930;2023-05-03T12:52:32;101222.41;;;19.17;26.88
30724;BME280;17473;52.286;20.930;2023-05-03T12:55:06;101224.16;;;19.12;26.95
30724;BME280;17473;52.286;20.930;2023-05-03T12:57:37;101220.44;;;19.00;26.74
30724;BME280;17473;52.286;20.930;2023-05-03T13:00:07;101225.84;;;19.03;26.52
30724;BME280;17473;52.286;20.930;2023-05-03T13:02:50;101213.59;;;19.26;27.17
30724;BME280;17473;52.286;20.930;2023-05-03T13:05:20;101217.16;;;19.26;26.89
30724;BME280;17473;52.286;20.930;2023-05-03T13:08:02;101210.88;;;19.24;26.83
30724;BME280;17473;52.286;20.930;2023-05-03T13:10:37;101213.50;;;19.19;27.03
30724;BME280;17473;52.286;20.930;2023-05-03T13:13:05;101211.94;;;19.38;27.23
30724;BME280;17473;52.286;20.930;2023-05-03T13:15:36;101220.03;;;19.45;27.05
30724;BME280;17473;52.286;20.930;2023-05-03T13:18:05;101212.09;;;19.52;26.46